Avera, Georgia
Current Conditions -  °F | °C
As of 11:55 AM on Friday 24 Oct 2014 (Local Time) from KOKZ Reporting Station
Clear Clear  
Wind Chill: 67°   Ceiling: Unl
Heat Index: 67°   Visibility: 10mi
Dew Point: 50°   Wind: 0mph
Humidity: 53%   Direction: NA
Pressure: 30.09"   Gusts: NA
Location:  33.19°N, 82.53°W
Report Text: KOKZ 241555Z AUTO 00000KT 10SM CLR 20/10 A3009 RMK AO2 T01960098
Loading
Personal Weather Stations






























Interactive Weather Map New forecast layout! Learn more

10-Day Weather Forecast

Advertisements
Track Severe Weather on mobile